Burlington, CO

3:42 AM MDT on April 18, 2015 (GMT -0600)
Burlington | | Change Station
CLOSE
Current Station
Personal Weather Station
Location: Burlington, CO
Elevation: 4167 ft
Nearby Weather Stations

Elev 4167 ft 39.30 °N, 102.26 °W | Updated 47 seconds ago

Mostly Cloudy
Mostly Cloudy
43.0 °F
Feels Like 40 °F
N
5.4
Wind Variable Wind from North
Gusts 7.6 mph

Today
High -- | Low -- °F
--% Chance of Precip.
Yesterday
High -- | Low -- °F
Precip. -- in
6:07 AM 7:29 PM
Waning Crescent, 0% visible
Pressure 29.93 in
Visibility 10.0 miles
Clouds Scattered Clouds 300 ft
Overcast 1100 ft
Windchill 40 °F
Dew Point 42 °F
Humidity 98%
Rainfall 0.00 in
Snow Depth Not available.
UV 0 out of 12
Pollen 6.90 out of 12
Air Quality Not available.
Flu Activity Local Activity
SPECI KITR 180920Z AUTO 33007KT 10SM SCT003 OVC011 06/05 A2993 RMK AO2 T00610050

More Conditions Fewer Conditions

Pressure 29.93 in
Visibility 10.0 miles
Clouds Scattered Clouds 300 ft
Overcast 1100 ft
Windchill 40 °F
Dew Point 42 °F
Humidity 98%
Rainfall 0.00 in
Snow Depth Not available.
UV 0 out of 12
Pollen 6.90 out of 12
Air Quality Not available.
Flu Activity Local Activity
SPECI KITR 180920Z AUTO 33007KT 10SM SCT003 OVC011 06/05 A2993 RMK AO2 T00610050

More Conditions Fewer Conditions

10-Day Weather Forecast

Almanac

Astronomy

Apr. 18, 2015 Rise Set
Actual Time
Civil Twilight
Nautical Twilight
Astronomical Twilight
Moon
Length of Visible Light
Length of Day
Tomorrow will be .
, % of the Moon is Illuminated

Today's Extremes

State Highs State Lows

Community

WunderPhotos

Upload Photos

1,814,350 photos uploaded!

WunderBlogs® & News

Nearby

Air Quality

  Air Quality AQ Index Pollutant
Not available.

Snow Depth

Station Depth Elevation

Earthquake Activity

City Distance Mag. Time & Date
Minimum magnitude displayed is 2.5.

Coastal Water Temperatures

Place Temperature

Stations

Nearby Weather Stations

Station Location Temp. Windchill Dew Point Humidity Wind Precip. Elev Updated Type